createdAt,value
2022-10-04T00:00:09.787Z,98.95
2022-10-04T00:02:37.399Z,100.00
2022-10-04T00:05:08.591Z,99.87
2022-10-04T00:07:44.181Z,100.00
2022-10-04T00:10:22.049Z,100.00
2022-10-04T00:12:52.381Z,100.00
2022-10-04T00:15:23.314Z,100.00
2022-10-04T00:18:10.721Z,98.27
2022-10-04T00:20:53.369Z,98.29
2022-10-04T00:23:23.088Z,98.40
2022-10-04T00:25:51.267Z,98.81
2022-10-04T00:28:20.958Z,98.96
2022-10-04T00:31:06.058Z,98.47
2022-10-04T00:33:42.158Z,98.24
2022-10-04T00:36:26.636Z,99.08
2022-10-04T00:39:23.145Z,98.67
2022-10-04T00:41:49.698Z,100.00
2022-10-04T00:44:24.240Z,99.54
2022-10-04T00:46:52.849Z,100.00
2022-10-04T00:49:24.702Z,99.95
2022-10-04T00:51:58.121Z,100.00
2022-10-04T00:54:41.506Z,99.13
2022-10-04T00:57:15.715Z,100.00
2022-10-04T01:00:01.573Z,100.00
2022-10-04T01:02:44.254Z,99.97
2022-10-04T01:05:20.099Z,99.52
2022-10-04T01:08:04.696Z,100.00
2022-10-04T01:10:36.867Z,100.00
2022-10-04T01:13:14.295Z,100.00
2022-10-04T01:15:50.983Z,100.00
2022-10-04T01:18:20.307Z,100.00
2022-10-04T01:21:09.093Z,100.00
2022-10-04T01:23:41.851Z,100.00
2022-10-04T01:26:42.154Z,100.00
2022-10-04T01:29:16.967Z,100.00
2022-10-04T01:31:51.200Z,99.77
2022-10-04T01:34:23.395Z,98.98
2022-10-04T01:36:53.622Z,99.41
2022-10-04T01:39:22.655Z,99.90
2022-10-04T01:42:09.883Z,100.00
2022-10-04T01:44:48.170Z,99.53
2022-10-04T01:47:21.408Z,100.00
2022-10-04T01:49:49.419Z,99.61
2022-10-04T01:52:27.439Z,100.00
2022-10-04T01:55:03.715Z,100.00
2022-10-04T01:57:50.136Z,100.00
2022-10-04T02:00:17.530Z,100.00
2022-10-04T02:02:56.987Z,100.00
2022-10-04T02:05:42.500Z,100.00
2022-10-04T02:08:13.389Z,100.00
2022-10-04T02:10:43.607Z,100.00
2022-10-04T02:13:18.576Z,100.00
2022-10-04T02:15:47.529Z,100.00
2022-10-04T02:18:17.489Z,100.00
2022-10-04T02:20:45.522Z,100.00
2022-10-04T02:23:13.044Z,100.00
2022-10-04T02:25:39.830Z,100.00
2022-10-04T02:28:11.164Z,100.00
2022-10-04T02:31:18.106Z,100.00
2022-10-04T02:33:48.421Z,100.00
2022-10-04T02:36:16.946Z,100.00
2022-10-04T02:39:07.668Z,100.00
2022-10-04T02:41:48.683Z,100.00
2022-10-04T02:44:23.158Z,100.00
2022-10-04T02:47:03.463Z,100.00
2022-10-04T02:49:35.228Z,100.00
2022-10-04T02:52:12.137Z,100.00
2022-10-04T02:54:52.698Z,100.00
2022-10-04T02:57:22.406Z,100.00
2022-10-04T02:59:50.063Z,100.00
2022-10-04T03:02:31.216Z,100.00
2022-10-04T03:05:08.446Z,100.00
2022-10-04T03:07:37.060Z,100.00
2022-10-04T03:10:11.055Z,100.00
2022-10-04T03:12:39.471Z,100.00
2022-10-04T03:15:12.066Z,100.00
2022-10-04T03:17:42.188Z,100.00
2022-10-04T03:20:11.105Z,100.00
2022-10-04T03:22:40.847Z,100.00
2022-10-04T03:25:18.587Z,100.00
2022-10-04T03:27:45.313Z,100.00
2022-10-04T03:30:16.593Z,100.00
2022-10-04T03:32:43.611Z,100.00
2022-10-04T03:35:37.805Z,100.00
2022-10-04T03:38:11.385Z,100.00
2022-10-04T03:40:42.491Z,100.00
2022-10-04T03:43:12.501Z,100.00
2022-10-04T03:45:40.700Z,100.00
2022-10-04T03:48:13.672Z,100.00
2022-10-04T03:50:47.100Z,100.00
2022-10-04T03:53:28.810Z,100.00
2022-10-04T03:55:57.085Z,100.00
2022-10-04T03:58:28.331Z,100.00
2022-10-04T04:01:09.929Z,100.00
2022-10-04T04:03:45.877Z,100.00
2022-10-04T04:06:17.536Z,100.00
2022-10-04T04:08:48.346Z,100.00
2022-10-04T04:11:33.566Z,100.00
2022-10-04T04:14:08.142Z,100.00
2022-10-04T04:16:36.968Z,100.00
2022-10-04T04:19:11.432Z,100.00
2022-10-04T04:21:38.103Z,100.00
2022-10-04T04:24:12.646Z,100.00
2022-10-04T04:26:45.584Z,100.00
2022-10-04T04:29:22.478Z,100.00
2022-10-04T04:31:54.872Z,100.00
2022-10-04T04:34:27.806Z,100.00
2022-10-04T04:36:59.142Z,100.00
2022-10-04T04:39:37.133Z,100.00
2022-10-04T04:42:12.061Z,100.00
2022-10-04T04:44:48.742Z,100.00
2022-10-04T04:47:28.466Z,100.00
2022-10-04T04:50:05.177Z,100.00
2022-10-04T04:52:32.032Z,100.00
2022-10-04T04:54:58.877Z,100.00
2022-10-04T04:57:25.806Z,100.00
2022-10-04T04:59:57.958Z,100.00
2022-10-04T05:02:54.887Z,100.00
2022-10-04T05:05:25.618Z,100.00
2022-10-04T05:08:10.694Z,100.00
2022-10-04T05:10:39.125Z,100.00
2022-10-04T05:13:08.922Z,100.00
2022-10-04T05:15:38.001Z,100.00
2022-10-04T05:18:17.732Z,100.00
2022-10-04T05:20:49.965Z,100.00
2022-10-04T05:23:16.733Z,100.00
2022-10-04T05:25:43.446Z,100.00
2022-10-04T05:28:12.152Z,100.00
2022-10-04T05:31:00.815Z,100.00
2022-10-04T05:33:45.643Z,100.00
2022-10-04T05:36:13.726Z,100.00
2022-10-04T05:39:02.780Z,100.00
2022-10-04T05:41:42.767Z,100.00
2022-10-04T05:44:51.952Z,100.00
2022-10-04T05:47:24.011Z,100.00
2022-10-04T05:49:54.050Z,100.00
2022-10-04T05:52:51.359Z,100.00
2022-10-04T05:55:27.153Z,100.00
2022-10-04T05:58:18.323Z,100.00
2022-10-04T06:01:18.389Z,100.00
2022-10-04T06:04:03.072Z,100.00
2022-10-04T06:06:29.587Z,100.00
2022-10-04T06:09:19.467Z,99.60
2022-10-04T06:12:04.866Z,100.00
2022-10-04T06:15:08.804Z,100.00
2022-10-04T06:18:13.419Z,99.78
2022-10-04T06:20:58.033Z,100.00
2022-10-04T06:23:27.475Z,100.00
2022-10-04T06:26:07.638Z,99.71
2022-10-04T06:28:39.789Z,99.47
2022-10-04T06:31:44.893Z,100.00
2022-10-04T06:34:35.803Z,99.91
2022-10-04T06:37:20.258Z,100.00
2022-10-04T06:40:34.311Z,100.00
2022-10-04T06:43:09.957Z,100.00
2022-10-04T06:45:54.580Z,99.79
2022-10-04T06:48:23.934Z,99.46
2022-10-04T06:51:29.202Z,99.36
2022-10-04T06:54:32.958Z,98.83
2022-10-04T06:57:22.280Z,99.65
2022-10-04T07:00:20.823Z,100.00
2022-10-04T07:03:08.773Z,100.00
2022-10-04T07:05:50.347Z,100.00
2022-10-04T07:08:31.419Z,98.46
2022-10-04T07:11:25.750Z,97.89
2022-10-04T07:14:05.085Z,97.37
2022-10-04T07:16:43.159Z,96.26
2022-10-04T07:19:30.543Z,94.90
2022-10-04T07:22:12.232Z,95.70
2022-10-04T07:24:50.917Z,93.63
2022-10-04T07:27:22.879Z,92.14
2022-10-04T07:29:55.855Z,91.11
2022-10-04T07:32:27.727Z,90.72
2022-10-04T07:35:09.481Z,90.06
2022-10-04T07:37:58.117Z,87.65
2022-10-04T07:40:33.552Z,89.91
2022-10-04T07:43:05.308Z,92.00
2022-10-04T07:45:35.102Z,91.23
2022-10-04T07:48:13.478Z,94.22
2022-10-04T07:50:57.892Z,93.09
2022-10-04T07:53:31.667Z,90.53
2022-10-04T07:56:08.095Z,86.81
2022-10-04T07:58:53.472Z,82.05
2022-10-04T08:01:39.074Z,83.36
2022-10-04T08:04:18.651Z,81.26
2022-10-04T08:07:00.340Z,80.02
2022-10-04T08:09:51.250Z,79.71
2022-10-04T08:12:24.443Z,79.89
2022-10-04T08:14:55.530Z,81.37
2022-10-04T08:18:04.418Z,77.49
2022-10-04T08:20:52.827Z,76.30
2022-10-04T08:23:36.991Z,77.47
2022-10-04T08:26:27.619Z,73.84
2022-10-04T08:29:51.909Z,72.30
2022-10-04T08:32:36.858Z,75.07
2022-10-04T08:35:06.251Z,74.36
2022-10-04T08:38:01.262Z,75.10
2022-10-04T08:40:51.977Z,74.97
2022-10-04T08:43:56.760Z,73.90
2022-10-04T08:46:51.831Z,71.67
2022-10-04T08:49:30.586Z,69.38
2022-10-04T08:52:18.515Z,69.18
2022-10-04T08:54:59.015Z,69.42
2022-10-04T08:58:16.661Z,67.79
2022-10-04T09:00:52.006Z,68.48
2022-10-04T09:03:42.910Z,68.70
2022-10-04T09:06:15.487Z,69.78
2022-10-04T09:09:00.248Z,66.62
2022-10-04T09:12:05.826Z,66.28
2022-10-04T09:15:02.211Z,65.28
2022-10-04T09:17:46.981Z,65.29
2022-10-04T09:20:54.886Z,65.31
2022-10-04T09:23:30.034Z,65.62
2022-10-04T09:26:21.504Z,64.66
2022-10-04T09:29:15.841Z,63.84
2022-10-04T09:32:16.272Z,64.57
2022-10-04T09:35:03.957Z,64.18
2022-10-04T09:37:33.215Z,64.30
2022-10-04T09:40:00.446Z,65.63
2022-10-04T09:42:49.258Z,65.54
2022-10-04T09:45:15.772Z,62.59
2022-10-04T09:47:46.038Z,64.98
2022-10-04T09:50:28.322Z,63.38
2022-10-04T09:53:08.878Z,62.94
2022-10-04T09:55:46.758Z,63.14
2022-10-04T09:58:58.535Z,64.46
2022-10-04T10:02:00.479Z,61.48
2022-10-04T10:05:00.112Z,61.93
2022-10-04T10:07:43.091Z,65.73
2022-10-04T10:10:59.698Z,66.38
2022-10-04T10:13:42.953Z,68.24
2022-10-04T10:16:29.983Z,65.95
2022-10-04T10:19:15.301Z,65.97
2022-10-04T10:22:00.742Z,65.84
2022-10-04T10:24:30.252Z,66.41
2022-10-04T10:27:15.202Z,64.28
2022-10-04T10:30:04.156Z,63.27
2022-10-04T10:32:45.999Z,64.47
2022-10-04T10:35:21.606Z,65.71
2022-10-04T10:38:15.692Z,64.88
2022-10-04T10:41:03.324Z,66.24
2022-10-04T10:43:42.655Z,63.32
2022-10-04T10:46:16.540Z,64.48
2022-10-04T10:49:01.387Z,62.95
2022-10-04T10:51:55.858Z,63.81
2022-10-04T10:54:47.338Z,63.38
2022-10-04T10:57:38.854Z,63.51
2022-10-04T11:00:20.357Z,64.15
2022-10-04T11:02:50.703Z,62.37
2022-10-04T11:05:23.580Z,63.38
2022-10-04T11:08:04.686Z,63.98
2022-10-04T11:10:52.022Z,64.66
2022-10-04T11:13:18.847Z,63.95
2022-10-04T11:16:17.413Z,61.10
2022-10-04T11:18:58.607Z,60.59
2022-10-04T11:21:55.645Z,61.15
2022-10-04T11:24:37.391Z,61.63
2022-10-04T11:27:16.722Z,62.59
2022-10-04T11:29:55.236Z,62.78
2022-10-04T11:32:30.756Z,63.60
2022-10-04T11:35:09.288Z,61.39
2022-10-04T11:38:00.893Z,60.84
2022-10-04T11:41:00.035Z,62.29
2022-10-04T11:43:48.305Z,61.02
2022-10-04T11:46:36.173Z,61.52
2022-10-04T11:49:21.685Z,61.81
2022-10-04T11:52:04.761Z,61.47
2022-10-04T11:54:47.988Z,59.99
2022-10-04T11:57:49.615Z,59.87
2022-10-04T12:00:20.879Z,61.28
2022-10-04T12:03:18.763Z,60.16
2022-10-04T12:06:10.407Z,59.03
2022-10-04T12:09:15.457Z,58.34
2022-10-04T12:12:38.317Z,57.58
2022-10-04T12:15:17.006Z,57.54
2022-10-04T12:18:19.811Z,56.04
2022-10-04T12:21:23.933Z,56.51
2022-10-04T12:24:07.057Z,53.99
2022-10-04T12:26:55.862Z,54.11
2022-10-04T12:30:13.332Z,54.01
2022-10-04T12:33:05.550Z,53.42
2022-10-04T12:35:47.933Z,53.35
2022-10-04T12:38:21.242Z,52.84
2022-10-04T12:41:06.288Z,53.52
2022-10-04T12:43:57.574Z,53.36
2022-10-04T12:46:53.052Z,53.75
2022-10-04T12:49:44.324Z,54.46
2022-10-04T12:52:19.862Z,53.14
2022-10-04T12:54:59.247Z,51.82
2022-10-04T12:57:34.591Z,53.12
2022-10-04T13:00:16.155Z,52.48
2022-10-04T13:03:05.662Z,53.16
2022-10-04T13:05:38.351Z,51.25
2022-10-04T13:08:13.868Z,52.88
2022-10-04T13:11:18.053Z,53.28
2022-10-04T13:13:53.418Z,50.05
2022-10-04T13:19:50.420Z,50.79
2022-10-04T13:22:37.605Z,51.94
2022-10-04T13:25:35.761Z,53.20
2022-10-04T13:28:23.225Z,51.60
2022-10-04T13:31:00.673Z,52.23
2022-10-04T13:33:38.567Z,52.08
2022-10-04T13:36:05.165Z,52.69
2022-10-04T13:38:31.700Z,53.90
2022-10-04T13:41:23.290Z,53.11
2022-10-04T13:44:20.577Z,52.51
2022-10-04T13:47:08.786Z,53.87
2022-10-04T13:49:56.473Z,53.95
2022-10-04T13:52:44.605Z,54.68
2022-10-04T13:55:56.172Z,54.01
2022-10-04T13:58:29.377Z,54.89
2022-10-04T14:01:23.035Z,54.34
2022-10-04T14:04:14.429Z,54.46
2022-10-04T14:07:18.448Z,54.03
2022-10-04T14:09:51.021Z,54.44
2022-10-04T14:12:47.221Z,53.32
2022-10-04T14:15:41.704Z,54.64
2022-10-04T14:18:32.897Z,54.18
2022-10-04T14:21:15.348Z,55.07
2022-10-04T14:24:15.905Z,55.10
2022-10-04T14:27:08.353Z,55.25
2022-10-04T14:29:47.178Z,55.77
2022-10-04T14:32:52.160Z,55.68
2022-10-04T14:35:34.518Z,55.88
2022-10-04T14:38:27.470Z,54.97
2022-10-04T14:41:31.477Z,55.57
2022-10-04T14:44:17.592Z,56.70
2022-10-04T14:47:11.526Z,56.10
2022-10-04T14:50:07.849Z,57.00
2022-10-04T14:52:54.915Z,57.58
2022-10-04T14:55:57.558Z,57.20
2022-10-04T14:58:49.048Z,56.58
2022-10-04T15:01:19.151Z,57.20
2022-10-04T15:04:11.650Z,57.58
2022-10-04T15:06:48.769Z,57.55
2022-10-04T15:09:24.592Z,58.74
2022-10-04T15:15:12.169Z,58.55
2022-10-04T15:17:48.028Z,58.08
2022-10-04T15:20:24.996Z,59.22
2022-10-04T15:22:55.783Z,58.88
2022-10-04T15:25:51.855Z,58.81
2022-10-04T15:28:40.200Z,58.67
2022-10-04T15:31:34.361Z,59.15
2022-10-04T15:34:13.264Z,59.74
2022-10-04T15:36:50.637Z,60.41
2022-10-04T15:40:09.679Z,59.72
2022-10-04T15:42:37.542Z,60.32
2022-10-04T15:45:19.047Z,61.04
2022-10-04T15:48:11.248Z,62.58
2022-10-04T15:50:40.707Z,62.30
2022-10-04T15:53:45.987Z,63.54
2022-10-04T15:56:45.410Z,62.43
2022-10-04T15:59:39.916Z,63.09
2022-10-04T16:02:31.154Z,62.62
2022-10-04T16:05:14.194Z,63.71
2022-10-04T16:07:52.642Z,63.85
2022-10-04T16:10:34.439Z,64.16
2022-10-04T16:13:23.379Z,65.33
2022-10-04T16:16:15.866Z,65.81
2022-10-04T16:19:01.048Z,66.58
2022-10-04T16:21:46.149Z,67.52
2022-10-04T16:24:18.443Z,68.25
2022-10-04T16:26:45.170Z,68.90
2022-10-04T16:29:43.389Z,69.35
2022-10-04T16:32:29.579Z,71.69
2022-10-04T16:35:17.866Z,73.77
2022-10-04T16:38:00.395Z,73.93
2022-10-04T16:40:32.491Z,76.71
2022-10-04T16:43:01.310Z,75.64
2022-10-04T16:46:06.498Z,78.07
2022-10-04T16:48:57.142Z,79.16
2022-10-04T16:51:34.036Z,81.64
2022-10-04T16:54:19.113Z,80.56
2022-10-04T16:56:56.425Z,82.71
2022-10-04T16:59:43.972Z,84.32
2022-10-04T17:02:25.829Z,85.67
2022-10-04T17:05:14.944Z,86.30
2022-10-04T17:07:54.897Z,87.09
2022-10-04T17:10:49.289Z,89.04
2022-10-04T17:13:36.094Z,88.90
2022-10-04T17:16:14.903Z,89.68
2022-10-04T17:19:00.449Z,89.87
2022-10-04T17:21:58.722Z,90.19
2022-10-04T17:24:44.147Z,91.52
2022-10-04T17:27:45.200Z,93.28
2022-10-04T17:30:21.910Z,91.96
2022-10-04T17:33:38.467Z,93.36
2022-10-04T17:36:37.638Z,92.05
2022-10-04T17:39:28.999Z,93.88
2022-10-04T17:42:07.461Z,94.61
2022-10-04T17:44:45.520Z,94.64
2022-10-04T17:47:16.482Z,94.31
2022-10-04T17:50:32.824Z,95.47
2022-10-04T17:53:30.580Z,95.79
2022-10-04T17:56:00.950Z,96.83
2022-10-04T17:58:46.434Z,98.33
2022-10-04T18:01:34.399Z,100.00
2022-10-04T18:04:23.532Z,97.61
2022-10-04T18:06:57.199Z,95.49
2022-10-04T18:09:40.705Z,96.19
2022-10-04T18:12:26.465Z,95.14
2022-10-04T18:14:59.363Z,95.78
2022-10-04T18:17:31.072Z,94.85
2022-10-04T18:20:27.237Z,95.16
2022-10-04T18:23:03.035Z,94.68
2022-10-04T18:25:32.303Z,94.68
2022-10-04T18:28:22.823Z,94.18
2022-10-04T18:30:51.338Z,94.79
2022-10-04T18:33:26.365Z,96.85
2022-10-04T18:36:17.892Z,96.38
2022-10-04T18:39:00.568Z,97.47
2022-10-04T18:41:47.897Z,98.75
2022-10-04T18:44:17.276Z,97.37
2022-10-04T18:46:50.139Z,98.31
2022-10-04T18:49:21.266Z,98.77
2022-10-04T18:52:01.191Z,99.28
2022-10-04T18:55:12.617Z,96.84
2022-10-04T18:58:01.162Z,94.95
2022-10-04T19:00:55.983Z,96.62
2022-10-04T19:03:37.883Z,97.33
2022-10-04T19:06:19.594Z,98.20
2022-10-04T19:09:04.322Z,97.23
2022-10-04T19:11:40.093Z,96.67
2022-10-04T19:14:25.152Z,98.11
2022-10-04T19:17:21.367Z,98.09
2022-10-04T19:20:04.422Z,99.18
2022-10-04T19:23:02.966Z,98.96
2022-10-04T19:25:35.451Z,99.23
2022-10-04T19:28:07.753Z,98.98
2022-10-04T19:30:40.083Z,99.45
2022-10-04T19:33:15.845Z,99.74
2022-10-04T19:35:58.613Z,100.00
2022-10-04T19:38:59.282Z,100.00
2022-10-04T19:41:43.893Z,98.83
2022-10-04T19:44:24.123Z,99.48
2022-10-04T19:47:05.897Z,98.34
2022-10-04T19:49:56.753Z,100.00
2022-10-04T19:52:46.406Z,99.34
2022-10-04T19:55:45.321Z,98.69
2022-10-04T19:58:58.314Z,99.66
2022-10-04T20:01:26.003Z,100.00
2022-10-04T20:04:12.139Z,100.00
2022-10-04T20:06:48.727Z,99.22
2022-10-04T20:09:41.212Z,100.00
2022-10-04T20:12:35.655Z,99.92
2022-10-04T20:15:23.890Z,99.27
2022-10-04T20:17:54.484Z,99.92
2022-10-04T20:20:39.288Z,100.00
2022-10-04T20:23:10.102Z,99.66
2022-10-04T20:25:45.921Z,100.00
2022-10-04T20:28:32.891Z,100.00
2022-10-04T20:31:02.254Z,100.00
2022-10-04T20:33:49.502Z,100.00
2022-10-04T20:36:21.829Z,99.96
2022-10-04T20:39:01.861Z,99.20
2022-10-04T20:41:28.423Z,98.86
2022-10-04T20:43:58.063Z,100.00
2022-10-04T20:46:26.940Z,100.00
2022-10-04T20:48:54.972Z,100.00
2022-10-04T20:51:24.573Z,99.16
2022-10-04T20:53:51.604Z,99.00
2022-10-04T20:56:32.275Z,99.94
2022-10-04T20:59:04.052Z,99.76
2022-10-04T21:01:35.584Z,100.00
2022-10-04T21:04:32.365Z,98.31
2022-10-04T21:07:05.739Z,99.20
2022-10-04T21:09:34.828Z,98.59
2022-10-04T21:12:02.814Z,99.05
2022-10-04T21:14:31.298Z,99.08
2022-10-04T21:17:04.951Z,99.44
2022-10-04T21:19:38.846Z,99.95
2022-10-04T21:22:08.098Z,100.00
2022-10-04T21:24:39.640Z,100.00
2022-10-04T21:27:10.598Z,100.00
2022-10-04T21:29:38.214Z,100.00
2022-10-04T21:32:05.626Z,100.00
2022-10-04T21:34:52.573Z,100.00
2022-10-04T21:37:19.222Z,100.00
2022-10-04T21:39:45.910Z,100.00
2022-10-04T21:42:12.559Z,99.55
2022-10-04T21:44:39.150Z,100.00
2022-10-04T21:47:05.802Z,100.00
2022-10-04T21:49:32.503Z,100.00
2022-10-04T21:51:59.104Z,100.00
2022-10-04T21:54:25.681Z,100.00
2022-10-04T21:56:53.925Z,100.00
2022-10-04T21:59:21.196Z,100.00
2022-10-04T22:01:48.039Z,100.00
2022-10-04T22:04:14.804Z,100.00
2022-10-04T22:06:41.512Z,100.00
2022-10-04T22:09:09.322Z,100.00
2022-10-04T22:11:36.630Z,100.00
2022-10-04T22:14:03.582Z,100.00
2022-10-04T22:16:30.462Z,100.00
2022-10-04T22:18:57.151Z,100.00
2022-10-04T22:21:23.745Z,99.54
2022-10-04T22:23:50.357Z,99.59
2022-10-04T22:26:22.108Z,100.00
2022-10-04T22:28:51.478Z,99.87
2022-10-04T22:31:20.905Z,100.00
2022-10-04T22:33:49.666Z,100.00
2022-10-04T22:36:25.159Z,100.00
2022-10-04T22:39:00.625Z,100.00
2022-10-04T22:41:48.426Z,100.00
2022-10-04T22:44:19.045Z,100.00
2022-10-04T22:46:49.920Z,100.00
2022-10-04T22:49:20.219Z,100.00
2022-10-04T22:51:49.611Z,100.00
2022-10-04T22:54:18.517Z,100.00
2022-10-04T22:56:46.010Z,100.00
2022-10-04T22:59:15.000Z,100.00
2022-10-04T23:01:43.519Z,100.00
2022-10-04T23:04:21.038Z,100.00
2022-10-04T23:06:48.669Z,100.00
2022-10-04T23:09:15.560Z,100.00
2022-10-04T23:11:42.668Z,100.00
2022-10-04T23:14:09.326Z,100.00
2022-10-04T23:16:38.796Z,100.00
2022-10-04T23:19:20.277Z,100.00
2022-10-04T23:21:50.143Z,100.00
2022-10-04T23:24:22.287Z,100.00
2022-10-04T23:26:56.467Z,100.00
2022-10-04T23:29:34.829Z,100.00
2022-10-04T23:32:15.956Z,100.00
2022-10-04T23:34:46.165Z,100.00
2022-10-04T23:37:25.792Z,100.00
2022-10-04T23:39:52.350Z,100.00
2022-10-04T23:42:28.970Z,100.00
2022-10-04T23:44:57.676Z,100.00
2022-10-04T23:47:32.063Z,100.00
2022-10-04T23:49:58.643Z,100.00
2022-10-04T23:52:34.703Z,100.00
2022-10-04T23:55:01.949Z,100.00
2022-10-04T23:57:31.125Z,100.00
